sensor_id;sensor_type;location;lat;lon;timestamp;pressure;altitude;pressure_sealevel;temperature
49154;BMP280;49455;52.252;9.124;2022-08-11T00:01:22;100304.44;;;20.89
49154;BMP280;49455;52.252;9.124;2022-08-11T00:06:27;100292.94;;;21.09
49154;BMP280;49455;52.252;9.124;2022-08-11T00:11:37;100281.63;;;20.95
49154;BMP280;49455;52.252;9.124;2022-08-11T00:16:38;100287.81;;;20.77
49154;BMP280;49455;52.252;9.124;2022-08-11T07:15:12;100314.78;;;21.26
49154;BMP280;49455;52.252;9.124;2022-08-11T07:20:13;100315.59;;;21.38
49154;BMP280;49455;52.252;9.124;2022-08-11T07:25:15;100318.09;;;21.57
49154;BMP280;49455;52.252;9.124;2022-08-11T07:30:18;100318.84;;;21.74
49154;BMP280;49455;52.252;9.124;2022-08-11T07:35:37;100323.94;;;21.93
49154;BMP280;49455;52.252;9.124;2022-08-11T07:40:42;100326.50;;;22.04
49154;BMP280;49455;52.252;9.124;2022-08-11T07:45:44;100318.34;;;22.35
49154;BMP280;49455;52.252;9.124;2022-08-11T07:50:45;100320.88;;;22.42
49154;BMP280;49455;52.252;9.124;2022-08-11T07:55:52;100312.66;;;22.73
49154;BMP280;49455;52.252;9.124;2022-08-11T08:00:56;100329.16;;;22.91
49154;BMP280;49455;52.252;9.124;2022-08-11T08:05:57;100314.06;;;23.05
49154;BMP280;49455;52.252;9.124;2022-08-11T08:10:58;100319.88;;;23.28
49154;BMP280;49455;52.252;9.124;2022-08-11T08:15:58;100319.75;;;23.36
49154;BMP280;49455;52.252;9.124;2022-08-11T08:20:59;100330.09;;;23.54
49154;BMP280;49455;52.252;9.124;2022-08-11T08:26:03;100322.84;;;23.67
49154;BMP280;49455;52.252;9.124;2022-08-11T08:31:05;100315.16;;;24.07
49154;BMP280;49455;52.252;9.124;2022-08-11T08:36:05;100325.59;;;24.14
49154;BMP280;49455;52.252;9.124;2022-08-11T08:41:06;100317.09;;;24.47
49154;BMP280;49455;52.252;9.124;2022-08-11T08:46:09;100316.38;;;24.84
49154;BMP280;49455;52.252;9.124;2022-08-11T08:51:11;100312.09;;;25.20
49154;BMP280;49455;52.252;9.124;2022-08-11T08:56:12;100304.44;;;25.07
49154;BMP280;49455;52.252;9.124;2022-08-11T09:01:14;100300.66;;;25.20
49154;BMP280;49455;52.252;9.124;2022-08-11T09:06:15;100300.03;;;25.46
49154;BMP280;49455;52.252;9.124;2022-08-11T09:11:16;100301.19;;;25.72
49154;BMP280;49455;52.252;9.124;2022-08-11T09:16:17;100301.53;;;25.95
49154;BMP280;49455;52.252;9.124;2022-08-11T09:21:18;100287.75;;;26.17
49154;BMP280;49455;52.252;9.124;2022-08-11T09:26:21;100283.91;;;26.28
49154;BMP280;49455;52.252;9.124;2022-08-11T09:31:21;100280.31;;;26.62
49154;BMP280;49455;52.252;9.124;2022-08-11T09:36:22;100274.84;;;26.98
49154;BMP280;49455;52.252;9.124;2022-08-11T09:41:22;100280.97;;;27.29
49154;BMP280;49455;52.252;9.124;2022-08-11T09:46:25;100274.03;;;27.53
49154;BMP280;49455;52.252;9.124;2022-08-11T09:51:31;100256.28;;;27.55
49154;BMP280;49455;52.252;9.124;2022-08-11T09:56:32;100254.44;;;27.57
49154;BMP280;49455;52.252;9.124;2022-08-11T10:01:57;100253.72;;;28.05
49154;BMP280;49455;52.252;9.124;2022-08-11T10:06:57;100241.75;;;27.92
49154;BMP280;49455;52.252;9.124;2022-08-11T10:12:00;100238.16;;;28.43
49154;BMP280;49455;52.252;9.124;2022-08-11T10:17:05;100231.94;;;28.44
49154;BMP280;49455;52.252;9.124;2022-08-11T10:22:09;100234.81;;;28.62
49154;BMP280;49455;52.252;9.124;2022-08-11T10:27:09;100227.06;;;28.56
49154;BMP280;49455;52.252;9.124;2022-08-11T10:32:10;100225.94;;;28.63
49154;BMP280;49455;52.252;9.124;2022-08-11T10:37:12;100220.31;;;28.46
49154;BMP280;49455;52.252;9.124;2022-08-11T10:42:13;100210.94;;;28.83
49154;BMP280;49455;52.252;9.124;2022-08-11T10:47:14;100207.53;;;29.02
49154;BMP280;49455;52.252;9.124;2022-08-11T10:52:15;100187.78;;;29.09
49154;BMP280;49455;52.252;9.124;2022-08-11T10:57:16;100203.44;;;29.38
49154;BMP280;49455;52.252;9.124;2022-08-11T11:02:17;100192.13;;;29.12
49154;BMP280;49455;52.252;9.124;2022-08-11T11:07:26;100187.72;;;29.53
49154;BMP280;49455;52.252;9.124;2022-08-11T11:12:32;100183.59;;;29.67
49154;BMP280;49455;52.252;9.124;2022-08-11T11:17:39;100176.41;;;29.69
49154;BMP280;49455;52.252;9.124;2022-08-11T11:22:41;100181.44;;;30.36
49154;BMP280;49455;52.252;9.124;2022-08-11T11:38:37;100166.56;;;30.70
49154;BMP280;49455;52.252;9.124;2022-08-11T11:43:38;100169.81;;;30.18
49154;BMP280;49455;52.252;9.124;2022-08-11T11:48:39;100174.44;;;30.53
49154;BMP280;49455;52.252;9.124;2022-08-11T11:53:44;100168.38;;;30.87
49154;BMP280;49455;52.252;9.124;2022-08-11T11:58:46;100161.47;;;30.64
49154;BMP280;49455;52.252;9.124;2022-08-11T12:03:51;100155.47;;;31.15
49154;BMP280;49455;52.252;9.124;2022-08-11T12:08:54;100147.78;;;30.71
49154;BMP280;49455;52.252;9.124;2022-08-11T12:13:57;100167.00;;;30.97
49154;BMP280;49455;52.252;9.124;2022-08-11T12:18:59;100147.72;;;31.62
49154;BMP280;49455;52.252;9.124;2022-08-11T12:24:01;100143.66;;;31.55
49154;BMP280;49455;52.252;9.124;2022-08-11T12:29:04;100139.59;;;32.15
49154;BMP280;49455;52.252;9.124;2022-08-11T12:34:15;100128.94;;;31.98
49154;BMP280;49455;52.252;9.124;2022-08-11T12:39:21;100112.31;;;31.75
49154;BMP280;49455;52.252;9.124;2022-08-11T12:44:26;100119.78;;;31.86
49154;BMP280;49455;52.252;9.124;2022-08-11T12:49:30;100114.31;;;31.54
49154;BMP280;49455;52.252;9.124;2022-08-11T12:59:47;100100.44;;;31.97
49154;BMP280;49455;52.252;9.124;2022-08-11T13:04:49;100091.63;;;32.29
49154;BMP280;49455;52.252;9.124;2022-08-11T13:09:50;100095.03;;;32.48
49154;BMP280;49455;52.252;9.124;2022-08-11T13:14:51;100078.78;;;32.19
49154;BMP280;49455;52.252;9.124;2022-08-11T13:19:51;100086.25;;;32.29
49154;BMP280;49455;52.252;9.124;2022-08-11T13:24:53;100073.13;;;32.72
49154;BMP280;49455;52.252;9.124;2022-08-11T13:29:55;100060.69;;;32.56
49154;BMP280;49455;52.252;9.124;2022-08-11T13:34:56;100062.47;;;32.55
49154;BMP280;49455;52.252;9.124;2022-08-11T13:39:57;100083.53;;;32.46
49154;BMP280;49455;52.252;9.124;2022-08-11T13:44:57;100059.31;;;32.64
49154;BMP280;49455;52.252;9.124;2022-08-11T13:50:00;100061.53;;;32.56
49154;BMP280;49455;52.252;9.124;2022-08-11T13:55:01;100058.09;;;33.15
49154;BMP280;49455;52.252;9.124;2022-08-11T14:00:05;100052.44;;;32.43
49154;BMP280;49455;52.252;9.124;2022-08-11T14:05:14;100038.38;;;32.55
49154;BMP280;49455;52.252;9.124;2022-08-11T14:10:18;100045.69;;;32.99
49154;BMP280;49455;52.252;9.124;2022-08-11T14:15:26;100035.53;;;32.73
49154;BMP280;49455;52.252;9.124;2022-08-11T14:20:30;100025.34;;;33.25
49154;BMP280;49455;52.252;9.124;2022-08-11T14:25:31;100030.03;;;32.61
49154;BMP280;49455;52.252;9.124;2022-08-11T14:30:32;100037.03;;;31.99
49154;BMP280;49455;52.252;9.124;2022-08-11T14:35:33;100022.44;;;32.22
49154;BMP280;49455;52.252;9.124;2022-08-11T14:40:33;100024.56;;;32.62
49154;BMP280;49455;52.252;9.124;2022-08-11T14:45:34;100016.59;;;32.30
49154;BMP280;49455;52.252;9.124;2022-08-11T14:50:35;100012.41;;;32.42
49154;BMP280;49455;52.252;9.124;2022-08-11T14:55:38;100012.31;;;32.58
49154;BMP280;49455;52.252;9.124;2022-08-11T15:00:40;100003.88;;;32.81
49154;BMP280;49455;52.252;9.124;2022-08-11T15:05:49;100003.06;;;33.10
49154;BMP280;49455;52.252;9.124;2022-08-11T15:10:51;100011.72;;;32.54
49154;BMP280;49455;52.252;9.124;2022-08-11T15:15:51;100010.56;;;32.58
49154;BMP280;49455;52.252;9.124;2022-08-11T15:20:52;100000.03;;;32.24
49154;BMP280;49455;52.252;9.124;2022-08-11T15:26:03;99993.59;;;32.89
49154;BMP280;49455;52.252;9.124;2022-08-11T15:31:05;99990.91;;;32.43
49154;BMP280;49455;52.252;9.124;2022-08-11T15:36:07;99992.16;;;32.21
49154;BMP280;49455;52.252;9.124;2022-08-11T15:41:11;99981.34;;;32.07
49154;BMP280;49455;52.252;9.124;2022-08-11T15:46:24;99975.78;;;32.58
49154;BMP280;49455;52.252;9.124;2022-08-11T15:51:36;99971.13;;;32.61
49154;BMP280;49455;52.252;9.124;2022-08-11T15:56:41;99966.56;;;32.32
49154;BMP280;49455;52.252;9.124;2022-08-11T16:01:43;99956.72;;;32.63
49154;BMP280;49455;52.252;9.124;2022-08-11T16:07:07;99958.19;;;31.91
49154;BMP280;49455;52.252;9.124;2022-08-11T16:12:12;99953.03;;;31.55
49154;BMP280;49455;52.252;9.124;2022-08-11T16:17:15;99947.28;;;31.62
49154;BMP280;49455;52.252;9.124;2022-08-11T16:22:24;99932.00;;;32.13
49154;BMP280;49455;52.252;9.124;2022-08-11T16:27:26;99950.41;;;31.70
49154;BMP280;49455;52.252;9.124;2022-08-11T16:32:28;99935.38;;;31.19
49154;BMP280;49455;52.252;9.124;2022-08-11T16:37:33;99944.00;;;31.07
49154;BMP280;49455;52.252;9.124;2022-08-11T16:42:35;99947.91;;;31.00
49154;BMP280;49455;52.252;9.124;2022-08-11T16:47:36;99940.22;;;30.77
49154;BMP280;49455;52.252;9.124;2022-08-11T16:52:37;99936.63;;;31.12
49154;BMP280;49455;52.252;9.124;2022-08-11T16:57:38;99936.28;;;30.84
49154;BMP280;49455;52.252;9.124;2022-08-11T17:02:50;99933.56;;;30.86
49154;BMP280;49455;52.252;9.124;2022-08-11T17:07:52;99928.91;;;31.06
49154;BMP280;49455;52.252;9.124;2022-08-11T17:12:54;99935.59;;;30.81
49154;BMP280;49455;52.252;9.124;2022-08-11T17:17:57;99924.25;;;30.41
49154;BMP280;49455;52.252;9.124;2022-08-11T17:23:00;99919.88;;;30.57
49154;BMP280;49455;52.252;9.124;2022-08-11T17:28:02;99918.28;;;30.71
49154;BMP280;49455;52.252;9.124;2022-08-11T17:33:03;99923.38;;;30.41
49154;BMP280;49455;52.252;9.124;2022-08-11T17:38:17;99923.22;;;29.89
49154;BMP280;49455;52.252;9.124;2022-08-11T17:43:19;99918.91;;;29.68
49154;BMP280;49455;52.252;9.124;2022-08-11T17:48:20;99911.66;;;29.32
49154;BMP280;49455;52.252;9.124;2022-08-11T17:53:21;99919.50;;;29.35
49154;BMP280;49455;52.252;9.124;2022-08-11T17:58:22;99909.59;;;29.19
49154;BMP280;49455;52.252;9.124;2022-08-11T18:03:24;99922.53;;;28.87
49154;BMP280;49455;52.252;9.124;2022-08-11T18:08:28;99923.00;;;28.77
49154;BMP280;49455;52.252;9.124;2022-08-11T18:13:30;99924.72;;;28.78
49154;BMP280;49455;52.252;9.124;2022-08-11T18:18:32;99922.97;;;28.34
49154;BMP280;49455;52.252;9.124;2022-08-11T18:23:32;99923.72;;;28.17
49154;BMP280;49455;52.252;9.124;2022-08-11T18:28:42;99927.41;;;27.90
49154;BMP280;49455;52.252;9.124;2022-08-11T18:33:49;99931.09;;;27.64
49154;BMP280;49455;52.252;9.124;2022-08-11T18:38:50;99937.31;;;27.40
49154;BMP280;49455;52.252;9.124;2022-08-11T18:43:55;99932.28;;;27.31
49154;BMP280;49455;52.252;9.124;2022-08-11T18:49:00;99933.94;;;26.85
49154;BMP280;49455;52.252;9.124;2022-08-11T18:54:06;99938.44;;;26.56
49154;BMP280;49455;52.252;9.124;2022-08-11T18:59:08;99931.81;;;26.43
49154;BMP280;49455;52.252;9.124;2022-08-11T19:04:11;99934.09;;;26.28
49154;BMP280;49455;52.252;9.124;2022-08-11T19:09:13;99939.91;;;26.12
49154;BMP280;49455;52.252;9.124;2022-08-11T19:14:16;99950.22;;;25.92
49154;BMP280;49455;52.252;9.124;2022-08-11T19:19:19;99948.00;;;25.78
49154;BMP280;49455;52.252;9.124;2022-08-11T19:24:21;99954.03;;;25.54
49154;BMP280;49455;52.252;9.124;2022-08-11T19:29:22;99949.03;;;25.42
49154;BMP280;49455;52.252;9.124;2022-08-11T19:34:25;99963.28;;;25.37
49154;BMP280;49455;52.252;9.124;2022-08-11T19:39:27;99965.25;;;25.30
49154;BMP280;49455;52.252;9.124;2022-08-11T19:44:29;99960.13;;;25.24
49154;BMP280;49455;52.252;9.124;2022-08-11T19:49:30;99957.59;;;25.20
49154;BMP280;49455;52.252;9.124;2022-08-11T19:54:33;99957.31;;;25.30
49154;BMP280;49455;52.252;9.124;2022-08-11T19:59:34;99963.38;;;25.34
49154;BMP280;49455;52.252;9.124;2022-08-11T20:04:35;99956.81;;;25.17
49154;BMP280;49455;52.252;9.124;2022-08-11T20:09:36;99957.78;;;25.13
49154;BMP280;49455;52.252;9.124;2022-08-11T20:14:39;99960.84;;;24.98
49154;BMP280;49455;52.252;9.124;2022-08-11T20:19:41;99957.97;;;25.07
49154;BMP280;49455;52.252;9.124;2022-08-11T20:24:42;99963.31;;;25.05
49154;BMP280;49455;52.252;9.124;2022-08-11T20:29:43;99961.34;;;25.13
49154;BMP280;49455;52.252;9.124;2022-08-11T20:34:44;99967.31;;;25.20
49154;BMP280;49455;52.252;9.124;2022-08-11T20:39:45;99961.81;;;24.94
49154;BMP280;49455;52.252;9.124;2022-08-11T20:44:48;99965.44;;;24.91
49154;BMP280;49455;52.252;9.124;2022-08-11T20:49:49;99973.47;;;24.87
49154;BMP280;49455;52.252;9.124;2022-08-11T20:54:51;99966.47;;;24.86
49154;BMP280;49455;52.252;9.124;2022-08-11T20:59:52;99976.34;;;24.77
49154;BMP280;49455;52.252;9.124;2022-08-11T21:04:53;99982.75;;;24.67
49154;BMP280;49455;52.252;9.124;2022-08-11T21:09:54;99979.41;;;24.60
49154;BMP280;49455;52.252;9.124;2022-08-11T21:14:56;99979.50;;;24.58
49154;BMP280;49455;52.252;9.124;2022-08-11T21:20:02;99976.06;;;24.53
49154;BMP280;49455;52.252;9.124;2022-08-11T21:25:06;99975.13;;;24.57
49154;BMP280;49455;52.252;9.124;2022-08-11T21:30:08;99972.41;;;24.59
49154;BMP280;49455;52.252;9.124;2022-08-11T21:35:09;99974.50;;;24.46
49154;BMP280;49455;52.252;9.124;2022-08-11T21:40:10;99972.81;;;24.42
49154;BMP280;49455;52.252;9.124;2022-08-11T21:45:12;99967.72;;;24.34
49154;BMP280;49455;52.252;9.124;2022-08-11T21:50:13;99970.69;;;24.21
49154;BMP280;49455;52.252;9.124;2022-08-11T22:00:14;99985.25;;;23.98
49154;BMP280;49455;52.252;9.124;2022-08-11T22:05:15;99984.41;;;23.98
49154;BMP280;49455;52.252;9.124;2022-08-11T22:10:17;99987.34;;;23.83
49154;BMP280;49455;52.252;9.124;2022-08-11T22:15:17;99987.97;;;23.95
49154;BMP280;49455;52.252;9.124;2022-08-11T22:20:18;99988.09;;;23.89
49154;BMP280;49455;52.252;9.124;2022-08-11T22:25:23;99981.41;;;23.72
49154;BMP280;49455;52.252;9.124;2022-08-11T22:30:25;99989.56;;;23.62
49154;BMP280;49455;52.252;9.124;2022-08-11T22:35:26;99984.84;;;23.77
49154;BMP280;49455;52.252;9.124;2022-08-11T22:40:27;99985.28;;;23.56
49154;BMP280;49455;52.252;9.124;2022-08-11T22:45:28;99986.53;;;23.36
49154;BMP280;49455;52.252;9.124;2022-08-11T22:50:30;99992.72;;;23.34
49154;BMP280;49455;52.252;9.124;2022-08-11T22:55:31;99990.81;;;23.41
49154;BMP280;49455;52.252;9.124;2022-08-11T23:00:32;99987.81;;;23.16
49154;BMP280;49455;52.252;9.124;2022-08-11T23:05:33;99988.00;;;23.04
49154;BMP280;49455;52.252;9.124;2022-08-11T23:10:33;99986.50;;;22.90
49154;BMP280;49455;52.252;9.124;2022-08-11T23:15:34;99990.25;;;22.75
49154;BMP280;49455;52.252;9.124;2022-08-11T23:20:35;99998.78;;;22.92
49154;BMP280;49455;52.252;9.124;2022-08-11T23:25:37;99988.22;;;22.92
49154;BMP280;49455;52.252;9.124;2022-08-11T23:30:39;99985.38;;;22.52
49154;BMP280;49455;52.252;9.124;2022-08-11T23:35:41;99982.13;;;22.35
49154;BMP280;49455;52.252;9.124;2022-08-11T23:40:44;99984.19;;;22.15
49154;BMP280;49455;52.252;9.124;2022-08-11T23:45:44;99984.34;;;22.01
49154;BMP280;49455;52.252;9.124;2022-08-11T23:50:45;99975.69;;;21.93
49154;BMP280;49455;52.252;9.124;2022-08-11T23:55:46;99978.41;;;21.87
